createdAt,value
2022-11-02T00:01:33.919Z,16.40
2022-11-02T00:04:00.555Z,16.40
2022-11-02T00:06:27.111Z,16.40
2022-11-02T00:08:53.689Z,16.20
2022-11-02T00:11:20.311Z,16.30
2022-11-02T00:13:46.873Z,16.30
2022-11-02T00:16:18.151Z,16.30
2022-11-02T00:18:47.667Z,16.30
2022-11-02T00:21:17.126Z,16.30
2022-11-02T00:23:44.311Z,16.20
2022-11-02T00:26:11.258Z,16.50
2022-11-02T00:28:39.224Z,16.40
2022-11-02T00:31:05.840Z,16.30
2022-11-02T00:33:32.472Z,16.30
2022-11-02T00:35:59.128Z,16.40
2022-11-02T00:38:25.769Z,16.40
2022-11-02T00:40:52.348Z,16.40
2022-11-02T00:43:19.033Z,16.30
2022-11-02T00:45:45.724Z,16.30
2022-11-02T00:48:12.317Z,16.40
2022-11-02T00:50:39.154Z,16.50
2022-11-02T00:53:06.471Z,16.30
2022-11-02T00:55:33.660Z,16.40
2022-11-02T00:58:03.752Z,16.30
2022-11-02T01:00:30.782Z,16.30
2022-11-02T01:03:01.457Z,16.20
2022-11-02T01:05:28.987Z,16.20
2022-11-02T01:07:56.913Z,16.20
2022-11-02T01:10:23.810Z,16.10
2022-11-02T01:12:50.647Z,16.30
2022-11-02T01:15:17.330Z,16.20
2022-11-02T01:17:44.362Z,16.30
2022-11-02T01:20:11.267Z,16.30
2022-11-02T01:22:37.958Z,16.20
2022-11-02T01:25:05.533Z,16.20
2022-11-02T01:27:32.221Z,16.30
2022-11-02T01:29:58.827Z,16.10
2022-11-02T01:32:25.507Z,16.00
2022-11-02T01:34:52.209Z,16.00
2022-11-02T01:37:18.792Z,16.00
2022-11-02T01:39:45.431Z,16.00
2022-11-02T01:42:20.848Z,16.10
2022-11-02T01:44:47.895Z,16.10
2022-11-02T01:47:23.873Z,16.10
2022-11-02T01:49:55.872Z,16.10
2022-11-02T01:52:33.003Z,16.10
2022-11-02T01:55:06.528Z,16.20
2022-11-02T01:57:35.297Z,16.20
2022-11-02T02:00:12.303Z,16.10
2022-11-02T02:02:56.688Z,16.10
2022-11-02T02:05:25.576Z,16.20
2022-11-02T02:07:53.076Z,16.10
2022-11-02T02:10:20.251Z,16.10
2022-11-02T02:12:47.703Z,16.10
2022-11-02T02:15:19.969Z,16.10
2022-11-02T02:18:01.032Z,16.10
2022-11-02T02:20:46.478Z,16.10
2022-11-02T02:23:26.783Z,16.10
2022-11-02T02:26:27.346Z,16.20
2022-11-02T02:29:01.260Z,16.00
2022-11-02T02:31:42.350Z,16.00
2022-11-02T02:34:24.535Z,16.00
2022-11-02T02:37:17.575Z,16.00
2022-11-02T02:39:51.265Z,15.90
2022-11-02T02:42:30.027Z,15.90
2022-11-02T02:45:08.477Z,15.90
2022-11-02T02:47:38.442Z,16.00
2022-11-02T02:50:19.703Z,16.00
2022-11-02T02:52:49.579Z,16.00
2022-11-02T02:55:22.377Z,16.10
2022-11-02T02:57:52.681Z,15.90
2022-11-02T03:00:19.368Z,16.00
2022-11-02T03:03:00.719Z,16.10
2022-11-02T03:05:37.219Z,16.10
2022-11-02T03:08:15.271Z,16.20
2022-11-02T03:10:48.170Z,16.20
2022-11-02T03:13:17.811Z,16.30
2022-11-02T03:15:59.647Z,16.10
2022-11-02T03:18:38.561Z,16.20
2022-11-02T03:21:18.041Z,16.10
2022-11-02T03:23:54.861Z,16.20
2022-11-02T03:26:44.841Z,16.20
2022-11-02T03:29:21.421Z,16.20
2022-11-02T03:32:00.339Z,16.20
2022-11-02T03:34:48.014Z,16.20
2022-11-02T03:37:29.523Z,16.10
2022-11-02T03:40:18.010Z,16.20
2022-11-02T03:42:46.404Z,16.20
2022-11-02T03:45:18.583Z,16.30
2022-11-02T03:47:50.169Z,16.10
2022-11-02T03:50:21.463Z,16.00
2022-11-02T03:52:57.003Z,16.10
2022-11-02T03:55:35.094Z,16.00
2022-11-02T03:58:02.370Z,16.00
2022-11-02T04:00:34.738Z,16.00
2022-11-02T04:03:08.311Z,16.10
2022-11-02T04:05:40.373Z,16.10
2022-11-02T04:08:21.214Z,16.00
2022-11-02T04:11:10.764Z,16.00
2022-11-02T04:13:57.258Z,15.90
2022-11-02T04:16:28.304Z,16.10
2022-11-02T04:19:14.701Z,16.10
2022-11-02T04:22:02.777Z,16.10
2022-11-02T04:24:49.439Z,16.10
2022-11-02T04:27:20.594Z,15.90
2022-11-02T04:29:48.912Z,15.90
2022-11-02T04:32:35.989Z,15.80
2022-11-02T04:35:05.127Z,15.90
2022-11-02T04:37:57.734Z,15.80
2022-11-02T04:40:24.834Z,15.80
2022-11-02T04:42:52.649Z,15.90
2022-11-02T04:45:19.498Z,15.80
2022-11-02T04:47:47.694Z,15.80
2022-11-02T04:50:14.388Z,15.70
2022-11-02T04:52:42.067Z,15.70
2022-11-02T04:55:09.187Z,15.70
2022-11-02T04:57:36.639Z,15.60
2022-11-02T05:00:05.033Z,15.60
2022-11-02T05:02:32.496Z,15.60
2022-11-02T05:04:59.156Z,15.60
2022-11-02T05:07:26.185Z,15.60
2022-11-02T05:09:52.742Z,15.40
2022-11-02T05:12:19.376Z,15.60
2022-11-02T05:14:46.937Z,15.60
2022-11-02T05:17:16.155Z,15.60
2022-11-02T05:19:43.171Z,15.60
2022-11-02T05:22:10.571Z,15.50
2022-11-02T05:24:37.940Z,15.50
2022-11-02T05:27:06.278Z,15.60
2022-11-02T05:29:35.905Z,15.60
2022-11-02T05:32:02.594Z,15.60
2022-11-02T05:34:29.243Z,15.60
2022-11-02T05:36:55.910Z,15.60
2022-11-02T05:39:22.547Z,15.60
2022-11-02T05:41:50.035Z,15.70
2022-11-02T05:44:16.959Z,15.80
2022-11-02T05:46:44.559Z,15.70
2022-11-02T05:49:11.131Z,15.60
2022-11-02T05:51:37.705Z,15.60
2022-11-02T05:54:04.475Z,15.70
2022-11-02T05:56:31.052Z,15.50
2022-11-02T05:58:57.667Z,15.50
2022-11-02T06:01:24.314Z,15.60
2022-11-02T06:03:53.790Z,15.60
2022-11-02T06:06:21.546Z,15.70
2022-11-02T06:08:48.199Z,15.60
2022-11-02T06:11:15.618Z,15.60
2022-11-02T06:13:42.477Z,15.60
2022-11-02T06:16:11.163Z,15.50
2022-11-02T06:18:38.876Z,15.50
2022-11-02T06:21:05.861Z,15.50
2022-11-02T06:23:32.889Z,15.60
2022-11-02T06:26:00.213Z,15.70
2022-11-02T06:28:27.756Z,15.60
2022-11-02T06:30:55.266Z,15.60
2022-11-02T06:33:22.396Z,15.60
2022-11-02T06:35:51.867Z,15.80
2022-11-02T06:38:19.227Z,15.60
2022-11-02T06:41:00.141Z,15.60
2022-11-02T06:43:26.737Z,15.50
2022-11-02T06:45:58.050Z,15.60
2022-11-02T06:48:28.696Z,15.70
2022-11-02T06:50:59.923Z,15.70
2022-11-02T06:53:26.568Z,15.70
2022-11-02T06:55:54.753Z,15.70
2022-11-02T06:58:22.861Z,15.80
2022-11-02T07:00:49.958Z,15.90
2022-11-02T07:03:16.848Z,15.80
2022-11-02T07:05:49.225Z,15.90
2022-11-02T07:08:15.801Z,15.80
2022-11-02T07:10:42.387Z,15.70
2022-11-02T07:13:09.008Z,15.70
2022-11-02T07:15:35.581Z,15.80
2022-11-02T07:18:02.193Z,15.80
2022-11-02T07:20:30.271Z,15.70
2022-11-02T07:22:59.321Z,15.80
2022-11-02T07:25:27.381Z,15.70
2022-11-02T07:27:54.872Z,15.70
2022-11-02T07:30:21.969Z,15.60
2022-11-02T07:32:48.735Z,15.70
2022-11-02T07:35:17.420Z,15.80
2022-11-02T07:37:44.511Z,15.80
2022-11-02T07:40:12.499Z,15.70
2022-11-02T07:42:48.670Z,15.80
2022-11-02T07:45:18.464Z,15.90
2022-11-02T07:47:45.779Z,15.90
2022-11-02T07:50:14.247Z,15.80
2022-11-02T07:52:45.306Z,15.70
2022-11-02T07:55:13.231Z,15.70
2022-11-02T07:57:39.814Z,15.70
2022-11-02T08:00:07.155Z,15.90
2022-11-02T08:02:38.843Z,15.90
2022-11-02T08:05:06.099Z,16.00
2022-11-02T08:07:32.687Z,15.80
2022-11-02T08:09:59.341Z,15.70
2022-11-02T08:12:26.339Z,15.80
2022-11-02T08:14:52.947Z,15.90
2022-11-02T08:17:19.575Z,15.90
2022-11-02T08:19:46.141Z,15.90
2022-11-02T08:22:12.715Z,15.70
2022-11-02T08:24:39.422Z,15.50
2022-11-02T08:27:06.403Z,15.50
2022-11-02T08:29:33.058Z,15.60
2022-11-02T08:31:59.614Z,15.70
2022-11-02T08:34:26.181Z,15.70
2022-11-02T08:36:52.737Z,15.80
2022-11-02T08:39:19.363Z,15.90
2022-11-02T08:41:46.076Z,15.80
2022-11-02T08:44:12.770Z,15.70
2022-11-02T08:46:39.323Z,15.80
2022-11-02T08:49:05.929Z,15.60
2022-11-02T08:51:32.494Z,15.90
2022-11-02T08:53:59.252Z,15.80
2022-11-02T08:56:25.802Z,16.00
2022-11-02T08:58:52.378Z,16.00
2022-11-02T09:01:19.047Z,16.00
2022-11-02T09:03:45.739Z,15.80
2022-11-02T09:06:12.302Z,15.70
2022-11-02T09:08:38.937Z,15.80
2022-11-02T09:11:05.677Z,16.00
2022-11-02T09:13:32.570Z,15.90
2022-11-02T09:16:00.274Z,15.90
2022-11-02T09:18:26.979Z,16.00
2022-11-02T09:20:53.864Z,16.00
2022-11-02T09:23:21.398Z,15.80
2022-11-02T09:25:48.931Z,15.90
2022-11-02T09:28:15.907Z,15.90
2022-11-02T09:30:43.087Z,16.00
2022-11-02T09:33:10.575Z,16.00
2022-11-02T09:35:48.215Z,16.20
2022-11-02T09:38:16.276Z,16.00
2022-11-02T09:40:50.522Z,16.00
2022-11-02T09:43:46.295Z,15.90
2022-11-02T09:46:22.674Z,16.00
2022-11-02T09:48:58.132Z,15.90
2022-11-02T09:51:29.470Z,15.90
2022-11-02T09:54:09.420Z,16.00
2022-11-02T09:56:41.345Z,15.80
2022-11-02T09:59:18.853Z,15.90
2022-11-02T10:02:00.942Z,16.00
2022-11-02T10:04:48.957Z,15.90
2022-11-02T10:07:51.273Z,15.90
2022-11-02T10:10:52.983Z,16.00
2022-11-02T10:14:00.940Z,16.10
2022-11-02T10:16:53.399Z,15.90
2022-11-02T10:19:24.991Z,15.70
2022-11-02T10:21:58.223Z,15.80
2022-11-02T10:24:37.120Z,15.80
2022-11-02T10:27:14.092Z,15.90
2022-11-02T10:30:04.122Z,16.00
2022-11-02T10:32:32.432Z,16.20
2022-11-02T10:35:17.958Z,16.00
2022-11-02T10:38:13.512Z,16.00
2022-11-02T10:40:55.816Z,15.90
2022-11-02T10:43:39.909Z,15.70
2022-11-02T10:46:12.383Z,15.70
2022-11-02T10:49:12.951Z,15.70
2022-11-02T10:51:39.670Z,15.80
2022-11-02T10:54:17.873Z,15.90
2022-11-02T10:56:50.191Z,15.90
2022-11-02T10:59:19.065Z,15.90
2022-11-02T11:01:56.034Z,15.90
2022-11-02T11:04:30.855Z,16.10
2022-11-02T11:07:03.915Z,16.20
2022-11-02T11:09:48.235Z,16.30
2022-11-02T11:12:22.341Z,16.30
2022-11-02T11:20:31.263Z,16.20
2022-11-02T11:23:16.896Z,16.30
2022-11-02T11:25:52.882Z,16.30
2022-11-02T11:28:25.969Z,16.20
2022-11-02T11:31:11.822Z,16.30
2022-11-02T11:33:45.237Z,16.30
2022-11-02T11:36:22.276Z,16.10
2022-11-02T11:38:50.732Z,16.20
2022-11-02T11:41:17.892Z,16.10
2022-11-02T11:43:46.830Z,16.10
2022-11-02T11:46:14.426Z,16.30
2022-11-02T11:48:46.109Z,16.40
2022-11-02T11:51:32.017Z,16.30
2022-11-02T11:54:28.098Z,16.40
2022-11-02T11:57:22.292Z,16.20
2022-11-02T11:59:52.712Z,16.30
2022-11-02T12:02:37.986Z,16.20
2022-11-02T12:05:07.847Z,16.20
2022-11-02T12:08:01.572Z,16.30
2022-11-02T12:10:42.149Z,16.40
2022-11-02T12:13:42.064Z,16.10
2022-11-02T12:16:17.692Z,15.90
2022-11-02T12:19:11.950Z,16.10
2022-11-02T12:21:59.198Z,16.00
2022-11-02T12:24:49.164Z,15.90
2022-11-02T12:27:33.249Z,16.00
2022-11-02T12:30:17.008Z,15.90
2022-11-02T12:33:17.708Z,16.00
2022-11-02T12:36:06.268Z,16.10
2022-11-02T12:38:49.426Z,16.30
2022-11-02T12:41:44.122Z,16.50
2022-11-02T12:44:17.524Z,16.50
2022-11-02T12:46:51.482Z,16.60
2022-11-02T12:49:41.554Z,16.80
2022-11-02T12:52:29.596Z,17.00
2022-11-02T12:54:59.237Z,17.50
2022-11-02T12:57:30.397Z,17.60
2022-11-02T13:00:02.926Z,17.60
2022-11-02T13:02:53.947Z,17.90
2022-11-02T13:05:28.386Z,17.80
2022-11-02T13:08:19.614Z,17.90
2022-11-02T13:10:59.939Z,17.70
2022-11-02T13:13:59.543Z,17.80
2022-11-02T13:16:41.151Z,17.60
2022-11-02T13:19:22.591Z,17.50
2022-11-02T13:21:54.914Z,17.80
2022-11-02T13:24:30.733Z,17.50
2022-11-02T13:27:14.375Z,17.60
2022-11-02T13:29:50.699Z,17.50
2022-11-02T15:34:06.195Z,17.40
2022-11-02T15:36:37.897Z,17.30
2022-11-02T15:39:10.410Z,17.30
2022-11-02T15:41:48.218Z,17.40
2022-11-02T15:44:21.580Z,17.20
2022-11-02T15:46:59.386Z,17.00
2022-11-02T15:49:55.561Z,17.00
2022-11-02T15:53:21.264Z,16.90
2022-11-02T15:55:40.930Z,16.90
2022-11-02T15:58:37.800Z,16.90
2022-11-02T16:01:05.699Z,16.90
2022-11-02T16:03:33.351Z,16.80
2022-11-02T16:06:03.190Z,16.70
2022-11-02T16:08:39.076Z,16.80
2022-11-02T16:11:17.425Z,16.90
2022-11-02T16:14:03.559Z,17.00
2022-11-02T16:16:35.853Z,16.90
2022-11-02T16:19:02.971Z,16.80
2022-11-02T16:21:30.387Z,16.80
2022-11-02T16:23:59.245Z,16.80
2022-11-02T16:26:29.087Z,16.80
2022-11-02T16:29:01.863Z,16.70
2022-11-02T16:31:32.304Z,16.70
2022-11-02T16:34:01.573Z,16.60
2022-11-02T16:36:31.144Z,16.60
2022-11-02T16:38:58.788Z,16.70
2022-11-02T16:41:33.884Z,16.60
2022-11-02T16:44:18.621Z,16.70
2022-11-02T16:47:08.035Z,16.60
2022-11-02T16:49:55.556Z,16.60
2022-11-02T16:52:27.410Z,16.70
2022-11-02T16:54:53.998Z,16.60
2022-11-02T16:57:27.544Z,16.60
2022-11-02T17:00:04.915Z,16.70
2022-11-02T17:02:39.861Z,16.60
2022-11-02T17:05:16.252Z,16.50
2022-11-02T17:07:47.024Z,16.50
2022-11-02T17:10:25.513Z,16.50
2022-11-02T17:12:52.852Z,16.60
2022-11-02T17:15:22.379Z,16.50
2022-11-02T17:17:49.826Z,16.50
2022-11-02T17:20:22.695Z,16.50
2022-11-02T17:22:57.847Z,16.40
2022-11-02T17:25:28.618Z,16.50
2022-11-02T17:28:00.436Z,16.50
2022-11-02T17:30:30.335Z,16.50
2022-11-02T17:32:58.134Z,16.40
2022-11-02T17:35:27.445Z,16.40
2022-11-02T17:37:55.934Z,16.30
2022-11-02T17:40:22.636Z,16.40
2022-11-02T17:42:59.030Z,16.30
2022-11-02T17:45:31.064Z,16.30
2022-11-02T17:47:59.019Z,16.30
2022-11-02T17:50:27.805Z,16.40
2022-11-02T17:52:55.723Z,16.40
2022-11-02T17:55:29.354Z,16.40
2022-11-02T17:57:56.933Z,16.40
2022-11-02T18:00:24.443Z,16.40
2022-11-02T18:02:53.068Z,16.40
2022-11-02T18:05:36.042Z,16.30
2022-11-02T18:08:05.547Z,16.20
2022-11-02T18:10:37.217Z,16.10
2022-11-02T18:13:04.421Z,16.10
2022-11-02T18:15:32.889Z,16.10
2022-11-02T18:18:00.104Z,16.00
2022-11-02T18:20:27.812Z,16.00
2022-11-02T18:22:55.821Z,16.10
2022-11-02T18:25:23.129Z,16.00
2022-11-02T18:27:49.757Z,16.10
2022-11-02T18:30:17.762Z,16.10
2022-11-02T18:32:45.866Z,16.00
2022-11-02T18:35:19.276Z,16.00
2022-11-02T18:37:49.043Z,16.00
2022-11-02T18:40:18.567Z,15.90
2022-11-02T18:42:45.495Z,15.90
2022-11-02T18:45:14.182Z,15.90
2022-11-02T18:47:41.948Z,16.00
2022-11-02T18:50:10.732Z,16.00
2022-11-02T18:52:37.476Z,15.90
2022-11-02T18:55:05.228Z,15.90
2022-11-02T18:57:32.832Z,15.90
2022-11-02T19:00:02.380Z,15.90
2022-11-02T19:02:29.554Z,15.80
2022-11-02T19:08:25.248Z,15.80
2022-11-02T19:10:51.908Z,15.80
2022-11-02T19:13:18.544Z,15.80
2022-11-02T19:15:45.159Z,15.80
2022-11-02T19:18:11.816Z,15.80
2022-11-02T19:20:38.612Z,15.80
2022-11-02T19:23:05.754Z,15.80
2022-11-02T19:25:32.487Z,15.80
2022-11-02T19:27:59.367Z,15.80
2022-11-02T19:30:25.949Z,15.90
2022-11-02T19:32:52.657Z,15.90
2022-11-02T19:35:19.272Z,15.90
2022-11-02T19:37:45.907Z,15.80
2022-11-02T19:40:12.691Z,15.80
2022-11-02T19:42:39.720Z,15.80
2022-11-02T19:45:06.675Z,15.80
2022-11-02T19:47:34.015Z,15.80
2022-11-02T19:50:00.591Z,15.80
2022-11-02T19:52:27.234Z,15.80
2022-11-02T19:54:53.810Z,15.80
2022-11-02T19:57:20.418Z,15.70
2022-11-02T19:59:47.123Z,15.70
2022-11-02T20:02:14.208Z,15.70
2022-11-02T20:04:42.501Z,15.70
2022-11-02T20:07:09.787Z,15.70
2022-11-02T20:09:36.596Z,15.70
2022-11-02T20:12:04.745Z,15.70
2022-11-02T20:14:31.319Z,15.70
2022-11-02T20:17:10.690Z,15.70
2022-11-02T20:19:44.756Z,15.70
2022-11-02T20:22:12.903Z,15.70
2022-11-02T20:24:39.546Z,15.60
2022-11-02T20:27:07.902Z,15.70
2022-11-02T20:29:34.629Z,15.60
2022-11-02T20:32:01.293Z,15.70
2022-11-02T20:34:27.981Z,15.70
2022-11-02T20:36:54.597Z,15.70
2022-11-02T20:39:21.407Z,15.60
2022-11-02T20:41:52.464Z,15.70
2022-11-02T20:44:20.710Z,15.70
2022-11-02T20:46:52.786Z,15.60
2022-11-02T20:49:21.858Z,15.70
2022-11-02T20:51:56.542Z,15.60
2022-11-02T20:54:23.795Z,15.70
2022-11-02T20:56:50.774Z,15.70
2022-11-02T20:59:17.938Z,15.70
2022-11-02T21:01:44.957Z,15.70
2022-11-02T21:04:15.508Z,15.70
2022-11-02T21:06:46.221Z,15.70
2022-11-02T21:09:12.944Z,15.60
2022-11-02T21:11:58.337Z,15.60
2022-11-02T21:14:27.008Z,15.50
2022-11-02T21:16:56.457Z,15.60
2022-11-02T21:19:23.196Z,15.50
2022-11-02T21:21:51.817Z,15.60
2022-11-02T21:24:21.741Z,15.60
2022-11-02T21:26:48.331Z,15.50
2022-11-02T21:29:14.908Z,15.50
2022-11-02T21:31:41.515Z,15.50
2022-11-02T21:34:08.139Z,15.50
2022-11-02T21:36:34.762Z,15.50
2022-11-02T21:39:01.451Z,15.50
2022-11-02T21:41:28.790Z,15.50
2022-11-02T21:43:55.824Z,15.40
2022-11-02T21:46:25.759Z,15.40
2022-11-02T21:48:52.786Z,15.40
2022-11-02T21:51:21.191Z,15.40
2022-11-02T21:53:54.417Z,15.40
2022-11-02T21:56:25.555Z,15.30
2022-11-02T21:58:53.681Z,15.30
2022-11-02T22:01:44.237Z,15.30
2022-11-02T22:04:13.691Z,15.30
2022-11-02T22:06:42.464Z,15.30
2022-11-02T22:09:11.382Z,15.30
2022-11-02T22:11:38.356Z,15.30
2022-11-02T22:14:20.208Z,15.30
2022-11-02T22:16:46.860Z,15.30
2022-11-02T22:19:15.220Z,15.30
2022-11-02T22:21:44.547Z,15.30
2022-11-02T22:24:12.124Z,15.30
2022-11-02T22:26:39.736Z,15.30
2022-11-02T22:29:06.865Z,15.30
2022-11-02T22:31:39.250Z,15.30
2022-11-02T22:34:08.153Z,15.20
2022-11-02T22:36:35.278Z,15.20
2022-11-02T22:39:04.149Z,15.20
2022-11-02T22:41:38.523Z,15.20
2022-11-02T22:44:16.999Z,15.20
2022-11-02T22:46:45.522Z,15.20
2022-11-02T22:49:13.608Z,15.20
2022-11-02T22:51:42.289Z,15.20
2022-11-02T22:54:11.714Z,15.20
2022-11-02T22:56:38.333Z,15.20
2022-11-02T22:59:05.874Z,15.10
2022-11-02T23:01:33.933Z,15.10
2022-11-02T23:04:01.239Z,15.10
2022-11-02T23:06:28.787Z,15.10
2022-11-02T23:08:59.970Z,15.10
2022-11-02T23:11:33.033Z,15.10
2022-11-02T23:14:02.198Z,15.00
2022-11-02T23:16:49.032Z,14.90
2022-11-02T23:19:29.631Z,14.90
2022-11-02T23:22:16.809Z,14.90
2022-11-02T23:25:05.798Z,14.90
2022-11-02T23:27:34.266Z,15.00
2022-11-02T23:30:19.578Z,15.10
2022-11-02T23:32:46.202Z,15.10
2022-11-02T23:35:31.294Z,15.10
2022-11-02T23:38:05.405Z,15.10
2022-11-02T23:40:32.694Z,15.00
2022-11-02T23:42:59.359Z,15.00
2022-11-02T23:45:25.958Z,15.00
2022-11-02T23:48:00.547Z,15.00
2022-11-02T23:50:49.012Z,15.00
2022-11-02T23:53:37.087Z,14.90
2022-11-02T23:56:23.659Z,14.90
2022-11-02T23:59:06.489Z,14.90
